createdAt,value
2018-11-25T00:02:04.833Z,3.40
2018-11-25T00:04:33.442Z,3.50
2018-11-25T00:07:02.069Z,3.40
2018-11-25T00:09:30.732Z,3.40
2018-11-25T00:11:59.337Z,3.50
2018-11-25T00:14:27.926Z,3.50
2018-11-25T00:16:56.537Z,3.50
2018-11-25T00:19:25.123Z,3.50
2018-11-25T00:21:53.758Z,3.50
2018-11-25T00:24:22.350Z,3.50
2018-11-25T00:26:50.959Z,3.60
2018-11-25T00:29:19.555Z,3.50
2018-11-25T00:31:48.201Z,3.50
2018-11-25T00:34:16.795Z,3.60
2018-11-25T00:36:45.424Z,3.60
2018-11-25T00:39:14.030Z,3.60
2018-11-25T00:41:42.672Z,3.60
2018-11-25T00:44:11.298Z,3.70
2018-11-25T00:46:39.986Z,3.80
2018-11-25T00:49:08.662Z,3.80
2018-11-25T00:51:37.294Z,3.80
2018-11-25T00:54:06.061Z,3.80
2018-11-25T00:56:34.707Z,3.70
2018-11-25T00:59:04.054Z,3.70
2018-11-25T01:01:32.714Z,3.70
2018-11-25T01:04:01.849Z,3.70
2018-11-25T01:06:30.490Z,3.70
2018-11-25T01:08:59.105Z,3.70
2018-11-25T01:11:27.718Z,3.70
2018-11-25T01:13:56.337Z,3.70
2018-11-25T01:16:24.947Z,3.60
2018-11-25T01:18:53.563Z,3.60
2018-11-25T01:21:22.225Z,3.60
2018-11-25T01:23:50.813Z,3.60
2018-11-25T01:26:19.423Z,3.60
2018-11-25T01:28:48.015Z,3.60
2018-11-25T01:31:16.627Z,3.60
2018-11-25T01:33:45.231Z,3.60
2018-11-25T01:36:13.838Z,3.60
2018-11-25T01:38:42.449Z,3.60
2018-11-25T01:41:11.076Z,3.50
2018-11-25T01:43:39.674Z,3.50
2018-11-25T01:46:08.301Z,3.40
2018-11-25T01:48:36.903Z,3.40
2018-11-25T01:51:05.754Z,3.40
2018-11-25T01:53:34.359Z,3.40
2018-11-25T01:56:02.998Z,3.40
2018-11-25T01:58:31.590Z,3.30
2018-11-25T02:01:00.221Z,3.30
2018-11-25T02:03:28.825Z,3.30
2018-11-25T02:05:57.526Z,3.20
2018-11-25T02:08:26.146Z,3.20
2018-11-25T02:10:54.759Z,3.20
2018-11-25T02:13:23.368Z,3.20
2018-11-25T02:15:53.841Z,3.30
2018-11-25T02:18:22.507Z,3.30
2018-11-25T02:20:51.126Z,3.30
2018-11-25T02:23:19.793Z,3.30
2018-11-25T02:25:48.409Z,3.20
2018-11-25T02:28:16.994Z,3.20
2018-11-25T02:30:45.610Z,3.30
2018-11-25T02:33:14.226Z,3.30
2018-11-25T02:35:42.811Z,3.30
2018-11-25T02:38:11.441Z,3.30
2018-11-25T02:40:40.099Z,3.30
2018-11-25T02:43:08.694Z,3.40
2018-11-25T02:45:37.303Z,3.30
2018-11-25T02:48:05.914Z,3.30
2018-11-25T02:50:34.554Z,3.30
2018-11-25T02:53:05.422Z,3.30
2018-11-25T02:55:34.049Z,3.20
2018-11-25T02:58:02.690Z,3.20
2018-11-25T03:00:31.338Z,3.20
2018-11-25T03:02:59.995Z,3.20
2018-11-25T03:05:28.683Z,3.20
2018-11-25T03:07:57.362Z,3.10
2018-11-25T03:10:26.024Z,3.10
2018-11-25T03:12:54.618Z,3.10
2018-11-25T03:15:23.246Z,3.10
2018-11-25T03:17:51.851Z,3.10
2018-11-25T03:20:20.502Z,3.10
2018-11-25T03:22:49.114Z,3.00
2018-11-25T03:25:19.606Z,3.00
2018-11-25T03:27:48.283Z,3.00
2018-11-25T03:30:17.924Z,3.00
2018-11-25T03:32:47.461Z,2.90
2018-11-25T03:35:16.105Z,2.90
2018-11-25T03:37:44.771Z,2.80
2018-11-25T03:40:16.266Z,2.80
2018-11-25T03:42:44.944Z,2.80
2018-11-25T03:45:16.465Z,2.90
2018-11-25T03:47:45.134Z,2.90
2018-11-25T03:50:14.449Z,2.90
2018-11-25T03:52:43.038Z,2.90
2018-11-25T03:55:12.820Z,2.90
2018-11-25T03:57:41.474Z,2.80
2018-11-25T04:00:18.819Z,2.80
2018-11-25T04:02:47.546Z,2.80
2018-11-25T04:05:16.981Z,2.80
2018-11-25T04:07:45.602Z,2.80
2018-11-25T04:10:15.894Z,2.80
2018-11-25T04:12:44.573Z,2.70
2018-11-25T04:15:16.121Z,2.70
2018-11-25T04:17:44.834Z,2.80
2018-11-25T04:20:15.289Z,2.80
2018-11-25T04:22:43.932Z,2.80
2018-11-25T04:25:13.148Z,2.80
2018-11-25T04:27:41.771Z,2.80
2018-11-25T04:30:14.191Z,2.90
2018-11-25T04:32:43.152Z,2.80
2018-11-25T04:35:12.517Z,2.80
2018-11-25T04:37:41.216Z,2.80
2018-11-25T04:40:11.120Z,2.80
2018-11-25T04:42:39.724Z,2.70
2018-11-25T04:45:10.488Z,2.70
2018-11-25T04:47:39.207Z,2.70
2018-11-25T04:50:10.564Z,2.70
2018-11-25T04:52:39.197Z,2.80
2018-11-25T04:55:08.273Z,2.80
2018-11-25T04:57:36.888Z,2.80
2018-11-25T05:00:10.592Z,2.80
2018-11-25T05:02:39.554Z,2.80
2018-11-25T05:05:10.614Z,2.80
2018-11-25T05:07:39.263Z,2.90
2018-11-25T05:10:13.096Z,2.90
2018-11-25T05:12:41.794Z,2.90
2018-11-25T05:15:18.372Z,2.90
2018-11-25T05:17:47.054Z,2.90
2018-11-25T05:20:16.269Z,3.00
2018-11-25T05:22:44.905Z,3.00
2018-11-25T05:25:15.471Z,3.00
2018-11-25T05:27:44.138Z,3.00
2018-11-25T05:30:15.123Z,3.00
2018-11-25T05:32:43.751Z,3.00
2018-11-25T05:35:13.505Z,2.90
2018-11-25T05:37:42.159Z,2.90
2018-11-25T05:40:12.655Z,2.90
2018-11-25T05:42:41.300Z,2.90
2018-11-25T05:45:11.330Z,2.80
2018-11-25T05:47:40.224Z,2.90
2018-11-25T05:50:11.293Z,2.90
2018-11-25T05:52:39.994Z,2.90
2018-11-25T05:55:09.541Z,2.90
2018-11-25T05:57:38.158Z,3.00
2018-11-25T06:00:23.910Z,3.00
2018-11-25T06:02:52.539Z,2.90
2018-11-25T06:05:21.229Z,2.90
2018-11-25T06:07:49.864Z,2.90
2018-11-25T06:10:18.459Z,2.90
2018-11-25T06:12:47.084Z,2.80
2018-11-25T06:15:15.710Z,2.80
2018-11-25T06:17:44.343Z,2.80
2018-11-25T06:20:15.866Z,2.80
2018-11-25T06:22:44.737Z,2.80
2018-11-25T06:25:15.369Z,2.80
2018-11-25T06:27:44.018Z,2.80
2018-11-25T06:30:13.743Z,2.70
2018-11-25T06:32:42.385Z,2.70
2018-11-25T06:35:12.067Z,2.70
2018-11-25T06:37:40.702Z,2.70
2018-11-25T06:40:16.817Z,2.70
2018-11-25T06:42:45.519Z,2.70
2018-11-25T06:45:16.528Z,2.60
2018-11-25T06:47:45.175Z,2.60
2018-11-25T06:50:13.881Z,2.60
2018-11-25T06:52:42.518Z,2.50
2018-11-25T06:55:12.191Z,2.60
2018-11-25T06:57:40.831Z,2.50
2018-11-25T07:00:13.327Z,2.50
2018-11-25T07:02:41.974Z,2.50
2018-11-25T07:05:10.831Z,2.50
2018-11-25T07:07:39.522Z,2.50
2018-11-25T07:10:11.484Z,2.50
2018-11-25T07:12:40.143Z,2.50
2018-11-25T07:15:10.522Z,2.50
2018-11-25T07:17:39.179Z,2.50
2018-11-25T07:20:15.988Z,2.60
2018-11-25T07:22:44.698Z,2.60
2018-11-25T07:25:20.792Z,2.60
2018-11-25T07:27:49.434Z,2.60
2018-11-25T07:30:23.738Z,2.60
2018-11-25T07:32:52.385Z,2.60
2018-11-25T07:35:21.247Z,2.60
2018-11-25T07:37:49.936Z,2.60
2018-11-25T07:40:19.548Z,2.60
2018-11-25T07:42:48.421Z,2.70
2018-11-25T07:45:19.057Z,2.80
2018-11-25T07:47:47.697Z,2.90
2018-11-25T07:50:16.352Z,2.90
2018-11-25T07:52:46.872Z,2.90
2018-11-25T07:55:18.570Z,2.90
2018-11-25T07:57:47.684Z,2.90
2018-11-25T08:00:19.132Z,2.90
2018-11-25T08:02:48.310Z,2.90
2018-11-25T08:05:32.605Z,2.90
2018-11-25T08:08:01.577Z,2.80
2018-11-25T08:10:30.187Z,2.90
2018-11-25T08:12:58.855Z,2.80
2018-11-25T08:15:27.481Z,2.90
2018-11-25T08:17:56.149Z,2.90
2018-11-25T08:20:24.813Z,2.90
2018-11-25T08:22:53.503Z,3.00
2018-11-25T08:25:22.616Z,3.00
2018-11-25T08:27:51.340Z,3.00
2018-11-25T08:30:20.869Z,3.00
2018-11-25T08:32:49.679Z,3.00
2018-11-25T08:35:18.608Z,3.10
2018-11-25T08:37:47.251Z,3.10
2018-11-25T08:40:23.657Z,3.20
2018-11-25T08:42:52.596Z,3.20
2018-11-25T08:45:21.248Z,3.30
2018-11-25T08:47:49.919Z,3.30
2018-11-25T08:50:19.282Z,3.40
2018-11-25T08:52:50.726Z,3.30
2018-11-25T08:55:20.596Z,3.40
2018-11-25T08:57:49.479Z,3.40
2018-11-25T09:00:19.023Z,3.40
2018-11-25T09:02:48.174Z,3.40
2018-11-25T09:05:16.846Z,3.40
2018-11-25T09:07:45.554Z,3.40
2018-11-25T09:10:21.501Z,3.50
2018-11-25T09:12:57.887Z,3.50
2018-11-25T09:15:28.835Z,3.50
2018-11-25T09:17:57.526Z,3.50
2018-11-25T09:20:26.228Z,3.60
2018-11-25T09:22:54.842Z,3.60
2018-11-25T09:25:28.809Z,3.70
2018-11-25T09:27:58.245Z,3.70
2018-11-25T09:30:27.868Z,3.80
2018-11-25T09:32:56.538Z,3.90
2018-11-25T09:35:25.402Z,4.00
2018-11-25T09:37:54.077Z,4.00
2018-11-25T09:40:23.703Z,4.00
2018-11-25T09:42:52.342Z,4.00
2018-11-25T09:45:21.171Z,4.00
2018-11-25T09:47:50.062Z,4.00
2018-11-25T09:50:22.307Z,4.10
2018-11-25T09:52:51.048Z,4.20
2018-11-25T09:55:22.565Z,4.20
2018-11-25T09:58:00.766Z,4.20
2018-11-25T10:00:33.530Z,4.20
2018-11-25T10:03:03.354Z,4.30
2018-11-25T10:05:32.035Z,4.40
2018-11-25T10:08:00.653Z,4.40
2018-11-25T10:10:30.285Z,4.40
2018-11-25T10:12:58.939Z,4.50
2018-11-25T10:15:28.418Z,4.50
2018-11-25T10:17:59.937Z,4.50
2018-11-25T10:20:28.072Z,4.60
2018-11-25T10:22:56.904Z,4.60
2018-11-25T10:25:25.517Z,4.60
2018-11-25T10:27:54.260Z,4.60
2018-11-25T10:30:25.912Z,4.60
2018-11-25T10:32:57.904Z,4.70
2018-11-25T10:35:26.529Z,4.80
2018-11-25T10:37:55.197Z,4.90
2018-11-25T10:40:24.551Z,4.90
2018-11-25T10:42:53.503Z,4.90
2018-11-25T10:45:24.941Z,5.00
2018-11-25T10:47:53.782Z,5.00
2018-11-25T10:50:22.601Z,5.10
2018-11-25T10:52:51.355Z,5.20
2018-11-25T10:55:20.717Z,5.20
2018-11-25T10:57:51.163Z,5.30
2018-11-25T11:00:30.086Z,5.40
2018-11-25T11:03:04.341Z,5.40
2018-11-25T11:05:38.326Z,5.30
2018-11-25T11:08:07.674Z,5.30
2018-11-25T11:10:36.287Z,5.30
2018-11-25T11:13:05.398Z,5.30
2018-11-25T11:15:34.024Z,5.30
2018-11-25T11:18:02.838Z,5.30
2018-11-25T11:20:31.484Z,5.40
2018-11-25T11:23:00.667Z,5.50
2018-11-25T11:25:29.343Z,5.40
2018-11-25T11:27:57.954Z,5.40
2018-11-25T11:30:26.635Z,5.50
2018-11-25T11:32:55.295Z,5.60
2018-11-25T11:35:23.963Z,5.70
2018-11-25T11:37:52.571Z,5.80
2018-11-25T11:40:21.274Z,5.90
2018-11-25T11:42:49.886Z,6.00
2018-11-25T11:45:18.510Z,6.10
2018-11-25T11:47:47.138Z,6.10
2018-11-25T11:50:17.073Z,6.10
2018-11-25T11:52:45.693Z,6.10
2018-11-25T11:55:15.572Z,6.10
2018-11-25T11:57:44.873Z,6.10
2018-11-25T12:00:19.828Z,6.20
2018-11-25T12:02:48.510Z,6.20
2018-11-25T12:05:17.198Z,6.30
2018-11-25T12:07:45.870Z,6.30
2018-11-25T12:10:15.390Z,6.30
2018-11-25T12:12:44.058Z,6.30
2018-11-25T12:15:18.769Z,6.30
2018-11-25T12:17:47.487Z,6.40
2018-11-25T12:20:16.521Z,6.30
2018-11-25T12:22:45.438Z,6.30
2018-11-25T12:25:15.177Z,6.20
2018-11-25T12:27:43.851Z,6.30
2018-11-25T12:30:13.645Z,6.30
2018-11-25T12:32:42.890Z,6.30
2018-11-25T12:35:12.724Z,6.30
2018-11-25T12:37:41.399Z,6.40
2018-11-25T12:40:12.226Z,6.40
2018-11-25T12:42:41.602Z,6.40
2018-11-25T12:45:13.316Z,6.40
2018-11-25T12:47:42.452Z,6.50
2018-11-25T12:50:13.674Z,6.40
2018-11-25T12:52:43.722Z,6.30
2018-11-25T12:55:17.131Z,6.20
2018-11-25T12:57:46.423Z,6.40
2018-11-25T13:00:23.862Z,6.20
2018-11-25T13:02:53.034Z,6.20
2018-11-25T13:05:22.168Z,6.20
2018-11-25T13:07:52.161Z,6.40
2018-11-25T13:10:21.268Z,6.30
2018-11-25T13:12:50.466Z,6.30
2018-11-25T13:15:19.614Z,6.20
2018-11-25T13:17:48.747Z,6.10
2018-11-25T13:20:17.909Z,6.10
2018-11-25T13:22:47.952Z,6.10
2018-11-25T13:25:18.604Z,6.00
2018-11-25T13:27:47.795Z,5.90
2018-11-25T13:30:23.989Z,6.00
2018-11-25T13:32:55.073Z,6.00
2018-11-25T13:35:25.750Z,6.00
2018-11-25T13:37:54.945Z,5.90
2018-11-25T13:40:24.833Z,5.90
2018-11-25T13:42:54.038Z,5.90
2018-11-25T13:45:23.202Z,5.90
2018-11-25T13:47:53.220Z,5.80
2018-11-25T13:50:23.301Z,5.80
2018-11-25T13:52:53.436Z,5.70
2018-11-25T13:55:25.523Z,5.60
2018-11-25T13:57:55.452Z,5.50
2018-11-25T14:00:36.826Z,5.50
2018-11-25T14:03:08.244Z,5.50
2018-11-25T14:05:36.930Z,5.50
2018-11-25T14:08:06.499Z,5.40
2018-11-25T14:10:35.431Z,5.50
2018-11-25T14:13:04.158Z,5.50
2018-11-25T14:15:33.058Z,5.60
2018-11-25T14:18:02.090Z,5.60
2018-11-25T14:20:30.770Z,5.70
2018-11-25T14:22:59.418Z,5.70
2018-11-25T14:25:28.222Z,5.70
2018-11-25T14:27:59.885Z,5.60
2018-11-25T14:30:29.856Z,5.60
2018-11-25T14:32:58.670Z,5.50
2018-11-25T14:35:27.455Z,5.50
2018-11-25T14:37:58.913Z,5.40
2018-11-25T14:40:27.658Z,5.40
2018-11-25T14:42:56.303Z,5.40
2018-11-25T14:45:25.015Z,5.30
2018-11-25T14:47:53.658Z,5.40
2018-11-25T14:50:22.325Z,5.30
2018-11-25T14:52:52.126Z,5.30
2018-11-25T14:55:21.229Z,5.30
2018-11-25T14:57:49.948Z,5.30
2018-11-25T15:00:21.715Z,5.30
2018-11-25T15:02:57.123Z,5.30
2018-11-25T15:05:32.570Z,5.30
2018-11-25T15:08:01.543Z,5.20
2018-11-25T15:10:30.209Z,5.20
2018-11-25T15:12:59.104Z,5.20
2018-11-25T15:15:27.787Z,5.20
2018-11-25T15:17:56.450Z,5.10
2018-11-25T15:20:25.097Z,5.10
2018-11-25T15:22:56.549Z,5.10
2018-11-25T15:25:27.000Z,5.10
2018-11-25T15:27:55.672Z,5.10
2018-11-25T15:30:24.306Z,5.10
2018-11-25T15:32:52.938Z,5.10
2018-11-25T15:35:21.594Z,5.10
2018-11-25T15:37:51.141Z,5.10
2018-11-25T15:40:22.174Z,5.00
2018-11-25T15:42:50.831Z,5.00
2018-11-25T15:45:19.472Z,5.00
2018-11-25T15:47:51.709Z,4.90
2018-11-25T15:50:23.022Z,4.90
2018-11-25T15:52:51.690Z,4.90
2018-11-25T15:55:20.530Z,4.90
2018-11-25T15:57:49.154Z,4.90
2018-11-25T16:00:19.903Z,4.90
2018-11-25T16:02:48.693Z,5.00
2018-11-25T16:05:23.653Z,5.10
2018-11-25T16:07:52.337Z,5.10
2018-11-25T16:10:21.080Z,5.10
2018-11-25T16:12:50.442Z,5.10
2018-11-25T16:15:20.183Z,5.20
2018-11-25T16:17:49.015Z,5.30
2018-11-25T16:20:21.514Z,5.40
2018-11-25T16:22:51.627Z,5.30
2018-11-25T16:25:41.474Z,5.30
2018-11-25T16:28:19.666Z,5.40
2018-11-25T16:30:48.279Z,5.40
2018-11-25T16:33:16.917Z,5.30
2018-11-25T16:35:45.549Z,5.30
2018-11-25T16:38:14.193Z,5.20
2018-11-25T16:40:42.807Z,5.20
2018-11-25T16:43:11.427Z,5.20
2018-11-25T16:45:40.078Z,5.20
2018-11-25T16:48:08.832Z,5.10
2018-11-25T16:50:37.421Z,5.20
2018-11-25T16:53:06.818Z,5.20
2018-11-25T16:55:35.443Z,5.20
2018-11-25T16:58:04.107Z,5.30
2018-11-25T17:00:32.739Z,5.20
2018-11-25T17:03:01.388Z,5.30
2018-11-25T17:05:32.899Z,5.30
2018-11-25T17:08:07.624Z,5.30
2018-11-25T17:10:36.278Z,5.40
2018-11-25T17:13:04.917Z,5.30
2018-11-25T17:15:33.571Z,5.30
2018-11-25T17:18:02.519Z,5.30
2018-11-25T17:20:31.351Z,5.30
2018-11-25T17:22:59.978Z,5.30
2018-11-25T17:25:28.625Z,5.30
2018-11-25T17:27:57.210Z,5.30
2018-11-25T17:30:25.874Z,5.20
2018-11-25T17:32:54.498Z,5.20
2018-11-25T17:35:27.414Z,5.20
2018-11-25T17:37:56.047Z,5.20
2018-11-25T17:40:24.661Z,5.30
2018-11-25T17:42:53.734Z,5.30
2018-11-25T17:45:22.379Z,5.40
2018-11-25T17:47:50.997Z,5.40
2018-11-25T17:50:25.829Z,5.40
2018-11-25T17:52:54.461Z,5.50
2018-11-25T17:55:24.254Z,5.50
2018-11-25T17:57:53.130Z,5.40
2018-11-25T18:00:38.746Z,5.40
2018-11-25T18:03:11.353Z,5.40
2018-11-25T18:05:39.956Z,5.30
2018-11-25T18:08:08.929Z,5.30
2018-11-25T18:10:37.558Z,5.20
2018-11-25T18:13:06.796Z,5.20
2018-11-25T18:15:35.417Z,5.20
2018-11-25T18:18:09.518Z,5.20
2018-11-25T18:20:46.715Z,5.20
2018-11-25T18:23:15.401Z,5.20
2018-11-25T18:25:44.020Z,5.20
2018-11-25T18:28:12.839Z,5.20
2018-11-25T18:30:41.459Z,5.20
2018-11-25T18:33:10.299Z,5.20
2018-11-25T18:35:38.911Z,5.20
2018-11-25T18:38:08.222Z,5.20
2018-11-25T18:40:43.309Z,5.20
2018-11-25T18:43:11.918Z,5.20
2018-11-25T18:45:40.523Z,5.20
2018-11-25T18:48:10.477Z,5.20
2018-11-25T18:50:39.061Z,5.20
2018-11-25T18:53:08.933Z,5.20
2018-11-25T18:55:36.356Z,5.20
2018-11-25T18:58:05.062Z,5.30
2018-11-25T19:00:41.475Z,5.20
2018-11-25T19:03:10.123Z,5.20
2018-11-25T19:05:38.774Z,5.20
2018-11-25T19:08:08.626Z,5.20
2018-11-25T19:10:37.290Z,5.20
2018-11-25T19:13:06.094Z,5.20
2018-11-25T19:15:34.702Z,5.10
2018-11-25T19:18:04.662Z,5.10
2018-11-25T19:20:33.258Z,5.10
2018-11-25T19:23:01.995Z,5.10
2018-11-25T19:25:30.609Z,5.10
2018-11-25T19:27:59.268Z,5.10
2018-11-25T19:30:27.896Z,5.10
2018-11-25T19:32:56.523Z,5.10
2018-11-25T19:35:25.190Z,5.10
2018-11-25T19:37:53.806Z,5.10
2018-11-25T19:40:24.754Z,5.10
2018-11-25T19:42:53.389Z,5.10
2018-11-25T19:45:24.156Z,5.10
2018-11-25T19:47:52.808Z,5.10
2018-11-25T19:50:28.794Z,5.10
2018-11-25T19:52:57.482Z,5.10
2018-11-25T19:55:26.109Z,5.10
2018-11-25T19:57:54.726Z,5.10
2018-11-25T20:00:24.323Z,5.10
2018-11-25T20:02:52.959Z,5.10
2018-11-25T20:05:21.641Z,5.10
2018-11-25T20:07:50.361Z,5.10
2018-11-25T20:10:20.069Z,5.10
2018-11-25T20:12:50.459Z,5.10
2018-11-25T20:15:19.706Z,5.10
2018-11-25T20:17:54.025Z,5.10
2018-11-25T20:20:18.924Z,5.10
2018-11-25T20:22:47.794Z,5.10
2018-11-25T20:25:16.832Z,5.00
2018-11-25T20:27:47.361Z,5.00
2018-11-25T20:30:18.894Z,5.00
2018-11-25T20:32:52.699Z,5.00
2018-11-25T20:35:21.353Z,5.00
2018-11-25T20:37:55.170Z,5.00
2018-11-25T20:40:23.798Z,5.00
2018-11-25T20:42:52.538Z,5.00
2018-11-25T20:45:27.019Z,5.00
2018-11-25T20:47:56.725Z,5.00
2018-11-25T20:50:25.336Z,5.00
2018-11-25T20:52:59.132Z,5.00
2018-11-25T20:55:27.751Z,5.10
2018-11-25T20:57:56.379Z,5.00
2018-11-25T21:00:26.213Z,5.00
2018-11-25T21:02:54.904Z,5.00
2018-11-25T21:05:23.887Z,5.00
2018-11-25T21:07:53.155Z,5.00
2018-11-25T21:10:21.770Z,5.00
2018-11-25T21:12:51.681Z,4.90
2018-11-25T21:15:20.326Z,5.00
2018-11-25T21:17:48.956Z,5.00
2018-11-25T21:20:19.894Z,5.00
2018-11-25T21:22:48.531Z,5.00
2018-11-25T21:25:18.972Z,5.00
2018-11-25T21:27:47.686Z,4.90
2018-11-25T21:30:19.337Z,4.90
2018-11-25T21:32:48.977Z,4.90
2018-11-25T21:35:17.680Z,4.90
2018-11-25T21:37:46.402Z,4.90
2018-11-25T21:40:17.043Z,4.90
2018-11-25T21:42:45.775Z,4.90
2018-11-25T21:45:15.512Z,4.90
2018-11-25T21:47:44.237Z,4.80
2018-11-25T21:50:15.046Z,4.80
2018-11-25T21:52:43.670Z,4.80
2018-11-25T21:55:16.095Z,4.80
2018-11-25T21:57:44.716Z,4.80
2018-11-25T22:00:14.502Z,4.80
2018-11-25T22:02:43.192Z,4.80
2018-11-25T22:05:12.363Z,4.80
2018-11-25T22:07:40.989Z,4.80
2018-11-25T22:10:10.721Z,4.80
2018-11-25T22:12:40.048Z,4.80
2018-11-25T22:15:09.966Z,4.70
2018-11-25T22:17:38.576Z,4.70
2018-11-25T22:20:08.901Z,4.70
2018-11-25T22:22:37.505Z,4.60
2018-11-25T22:25:08.516Z,4.60
2018-11-25T22:27:37.191Z,4.60
2018-11-25T22:30:14.898Z,4.70
2018-11-25T22:32:43.498Z,4.60
2018-11-25T22:35:14.751Z,4.60
2018-11-25T22:37:43.390Z,4.70
2018-11-25T22:40:12.907Z,4.60
2018-11-25T22:42:42.391Z,4.60
2018-11-25T22:45:13.706Z,4.60
2018-11-25T22:47:42.330Z,4.60
2018-11-25T22:50:13.066Z,4.60
2018-11-25T22:52:41.720Z,4.60
2018-11-25T22:55:12.742Z,4.60
2018-11-25T22:57:41.367Z,4.50
2018-11-25T23:00:42.642Z,4.50
2018-11-25T23:03:11.268Z,4.50
2018-11-25T23:05:51.054Z,4.50
2018-11-25T23:08:19.677Z,4.50
2018-11-25T23:10:48.315Z,4.50
2018-11-25T23:13:16.922Z,4.50
2018-11-25T23:15:45.668Z,4.60
2018-11-25T23:18:14.308Z,4.50
2018-11-25T23:20:42.958Z,4.50
2018-11-25T23:23:11.554Z,4.50
2018-11-25T23:25:40.207Z,4.50
2018-11-25T23:28:08.814Z,4.50
2018-11-25T23:30:37.445Z,4.50
2018-11-25T23:33:06.129Z,4.50
2018-11-25T23:35:35.091Z,4.50
2018-11-25T23:38:03.725Z,4.50
2018-11-25T23:40:32.367Z,4.40
2018-11-25T23:43:00.946Z,4.40
2018-11-25T23:45:29.619Z,4.50
2018-11-25T23:47:58.213Z,4.50
2018-11-25T23:50:26.856Z,4.60
2018-11-25T23:52:55.470Z,4.50
2018-11-25T23:55:24.122Z,4.50
2018-11-25T23:57:52.723Z,4.50
